createdAt,value
2018-02-07T00:01:22.151Z,100589.91
2018-02-07T00:03:52.536Z,100584.45
2018-02-07T00:06:20.077Z,100582.23
2018-02-07T00:08:47.626Z,100576.09
2018-02-07T00:11:15.308Z,100572.41
2018-02-07T00:13:44.331Z,100573.71
2018-02-07T00:16:12.168Z,100566.14
2018-02-07T00:18:39.790Z,100565.03
2018-02-07T00:21:07.318Z,100569.12
2018-02-07T00:23:34.871Z,100572.91
2018-02-07T00:26:02.468Z,100576.45
2018-02-07T00:28:29.988Z,100571.51
2018-02-07T00:30:57.552Z,100575.48
2018-02-07T00:33:25.065Z,100572.56
2018-02-07T00:35:52.582Z,100574.70
2018-02-07T00:38:20.093Z,100572.16
2018-02-07T00:40:47.602Z,100571.16
2018-02-07T00:43:15.140Z,100567.05
2018-02-07T00:45:42.733Z,100575.00
2018-02-07T00:48:10.322Z,100575.34
2018-02-07T00:50:37.968Z,100575.20
2018-02-07T00:53:05.506Z,100582.11
2018-02-07T00:55:33.038Z,100581.36
2018-02-07T00:58:00.582Z,100581.27
2018-02-07T01:00:28.132Z,100585.80
2018-02-07T01:02:55.792Z,100584.36
2018-02-07T01:05:23.291Z,100583.91
2018-02-07T01:07:50.820Z,100578.19
2018-02-07T01:10:18.401Z,100581.08
2018-02-07T01:12:45.952Z,100586.72
2018-02-07T01:15:13.520Z,100588.23
2018-02-07T01:17:41.061Z,100593.71
2018-02-07T01:20:08.659Z,100584.66
2018-02-07T01:22:36.235Z,100582.97
2018-02-07T01:25:03.739Z,100585.87
2018-02-07T01:27:31.295Z,100595.29
2018-02-07T01:29:58.787Z,100587.41
2018-02-07T01:32:26.398Z,100596.59
2018-02-07T01:34:54.020Z,100597.11
2018-02-07T01:37:21.564Z,100600.38
2018-02-07T01:39:49.089Z,100599.43
2018-02-07T01:42:16.694Z,100597.57
2018-02-07T01:44:44.237Z,100599.06
2018-02-07T01:47:11.781Z,100594.11
2018-02-07T01:49:39.320Z,100593.32
2018-02-07T01:52:06.915Z,100591.83
2018-02-07T01:54:34.444Z,100591.61
2018-02-07T01:57:01.945Z,100598.62
2018-02-07T01:59:29.473Z,100602.81
2018-02-07T02:01:57.022Z,100595.36
2018-02-07T02:04:24.529Z,100591.41
2018-02-07T02:06:52.058Z,100596.33
2018-02-07T02:09:19.660Z,100596.39
2018-02-07T02:11:47.194Z,100593.41
2018-02-07T02:14:14.703Z,100594.89
2018-02-07T02:16:42.259Z,100595.92
2018-02-07T02:19:09.840Z,100596.77
2018-02-07T02:21:37.410Z,100595.92
2018-02-07T02:24:04.938Z,100601.58
2018-02-07T02:26:32.460Z,100606.44
2018-02-07T02:28:59.971Z,100602.54
2018-02-07T02:31:27.539Z,100601.21
2018-02-07T02:33:55.059Z,100598.62
2018-02-07T02:36:34.263Z,100594.66
2018-02-07T02:39:03.221Z,100594.16
2018-02-07T02:41:30.833Z,100595.94
2018-02-07T02:43:58.422Z,100591.01
2018-02-07T02:46:25.952Z,100589.02
2018-02-07T02:48:53.488Z,100590.28
2018-02-07T02:51:21.054Z,100588.24
2018-02-07T02:53:48.602Z,100585.73
2018-02-07T02:56:16.118Z,100581.27
2018-02-07T02:58:43.652Z,100580.98
2018-02-07T03:01:11.236Z,100583.38
2018-02-07T03:03:39.482Z,100584.39
2018-02-07T03:06:07.012Z,100592.56
2018-02-07T03:08:34.511Z,100582.31
2018-02-07T03:11:02.125Z,100583.02
2018-02-07T03:13:29.629Z,100586.92
2018-02-07T03:15:57.173Z,100583.43
2018-02-07T03:18:24.741Z,100595.28
2018-02-07T03:20:52.266Z,100599.31
2018-02-07T03:23:21.668Z,100592.29
2018-02-07T03:25:49.260Z,100594.62
2018-02-07T03:28:17.899Z,100591.29
2018-02-07T03:30:45.482Z,100590.03
2018-02-07T03:33:12.988Z,100586.41
2018-02-07T03:35:40.541Z,100591.73
2018-02-07T03:38:08.073Z,100594.70
2018-02-07T03:40:35.628Z,100592.00
2018-02-07T03:43:03.130Z,100596.11
2018-02-07T03:45:30.750Z,100595.34
2018-02-07T03:47:58.280Z,100600.78
2018-02-07T03:50:25.814Z,100596.86
2018-02-07T03:52:53.372Z,100593.50
2018-02-07T03:55:20.911Z,100595.81
2018-02-07T03:57:48.456Z,100594.22
2018-02-07T04:00:16.014Z,100597.33
2018-02-07T04:02:43.611Z,100600.63
2018-02-07T04:05:11.150Z,100602.13
2018-02-07T04:07:38.691Z,100606.81
2018-02-07T04:10:06.250Z,100603.98
2018-02-07T04:12:33.821Z,100606.81
2018-02-07T04:15:01.475Z,100610.16
2018-02-07T04:17:29.454Z,100616.83
2018-02-07T04:19:57.088Z,100612.57
2018-02-07T04:22:24.646Z,100616.02
2018-02-07T04:24:52.236Z,100611.67
2018-02-07T04:27:19.767Z,100609.53
2018-02-07T04:29:47.321Z,100616.73
2018-02-07T04:32:14.840Z,100609.33
2018-02-07T04:34:42.426Z,100611.62
2018-02-07T04:37:09.972Z,100599.70
2018-02-07T04:39:37.532Z,100606.48
2018-02-07T04:42:05.196Z,100604.78
2018-02-07T04:44:32.718Z,100612.58
2018-02-07T04:47:00.251Z,100608.06
2018-02-07T04:49:27.814Z,100611.47
2018-02-07T04:51:55.354Z,100611.67
2018-02-07T04:54:22.964Z,100604.55
2018-02-07T04:56:50.472Z,100599.62
2018-02-07T04:59:18.137Z,100604.13
2018-02-07T05:01:45.741Z,100607.99
2018-02-07T05:04:13.789Z,100608.33
2018-02-07T05:06:42.813Z,100611.84
2018-02-07T05:09:10.431Z,100612.04
2018-02-07T05:11:37.959Z,100614.75
2018-02-07T05:14:05.497Z,100610.91
2018-02-07T05:16:33.114Z,100616.52
2018-02-07T05:19:00.728Z,100616.99
2018-02-07T05:21:28.251Z,100618.92
2018-02-07T05:23:55.754Z,100624.50
2018-02-07T05:26:23.271Z,100619.94
2018-02-07T05:28:50.806Z,100617.40
2018-02-07T05:31:18.405Z,100625.28
2018-02-07T05:33:45.908Z,100622.29
2018-02-07T05:36:13.437Z,100619.91
2018-02-07T05:38:40.983Z,100621.66
2018-02-07T05:41:08.570Z,100619.78
2018-02-07T05:43:37.209Z,100631.13
2018-02-07T05:46:04.760Z,100626.18
2018-02-07T05:48:32.360Z,100619.98
2018-02-07T05:50:59.911Z,100630.34
2018-02-07T05:53:27.922Z,100634.58
2018-02-07T05:55:55.504Z,100632.67
2018-02-07T05:58:23.001Z,100631.76
2018-02-07T06:00:50.520Z,100629.03
2018-02-07T06:03:18.049Z,100631.78
2018-02-07T06:05:45.619Z,100632.03
2018-02-07T06:08:13.144Z,100623.59
2018-02-07T06:10:41.185Z,100629.22
2018-02-07T06:13:08.744Z,100627.45
2018-02-07T06:15:36.376Z,100625.56
2018-02-07T06:18:04.056Z,100623.47
2018-02-07T06:20:31.583Z,100629.94
2018-02-07T06:22:59.104Z,100630.72
2018-02-07T06:25:26.624Z,100631.20
2018-02-07T06:27:54.205Z,100629.78
2018-02-07T06:30:21.700Z,100630.37
2018-02-07T06:32:49.256Z,100627.88
2018-02-07T06:35:16.775Z,100628.42
2018-02-07T06:37:44.333Z,100629.38
2018-02-07T06:40:11.854Z,100635.42
2018-02-07T06:42:39.365Z,100637.42
2018-02-07T06:45:06.925Z,100647.20
2018-02-07T06:47:34.515Z,100658.44
2018-02-07T06:50:02.053Z,100655.33
2018-02-07T06:52:29.647Z,100659.62
2018-02-07T06:54:57.176Z,100677.69
2018-02-07T06:57:24.674Z,100676.35
2018-02-07T06:59:52.208Z,100679.62
2018-02-07T07:02:19.694Z,100684.31
2018-02-07T07:04:47.260Z,100688.00
2018-02-07T07:07:14.831Z,100688.25
2018-02-07T07:09:42.371Z,100682.38
2018-02-07T07:12:09.946Z,100687.16
2018-02-07T07:14:37.496Z,100692.77
2018-02-07T07:17:04.991Z,100704.94
2018-02-07T07:19:32.485Z,100703.18
2018-02-07T07:22:00.497Z,100704.84
2018-02-07T07:24:28.081Z,100704.72
2018-02-07T07:26:55.593Z,100705.35
2018-02-07T07:29:23.135Z,100702.95
2018-02-07T07:31:50.696Z,100700.61
2018-02-07T07:34:18.236Z,100703.03
2018-02-07T07:36:45.769Z,100706.31
2018-02-07T07:39:14.214Z,100705.38
2018-02-07T07:41:41.840Z,100707.19
2018-02-07T07:44:09.365Z,100710.80
2018-02-07T07:46:36.907Z,100714.21
2018-02-07T07:49:04.443Z,100709.64
2018-02-07T07:51:31.998Z,100711.84
2018-02-07T07:53:59.488Z,100716.05
2018-02-07T07:56:26.995Z,100708.36
2018-02-07T07:58:54.535Z,100715.27
2018-02-07T08:01:22.039Z,100714.45
2018-02-07T08:03:49.559Z,100717.00
2018-02-07T08:06:17.069Z,100711.37
2018-02-07T08:08:44.610Z,100714.16
2018-02-07T08:11:13.393Z,100715.52
2018-02-07T08:13:41.787Z,100716.83
2018-02-07T08:16:09.296Z,100710.90
2018-02-07T08:18:38.151Z,100717.77
2018-02-07T08:21:05.729Z,100717.30
2018-02-07T08:23:33.242Z,100705.48
2018-02-07T08:26:00.727Z,100713.91
2018-02-07T08:28:28.269Z,100712.59
2018-02-07T08:30:55.854Z,100714.38
2018-02-07T08:33:23.305Z,100713.48
2018-02-07T08:35:50.879Z,100710.25
2018-02-07T08:38:18.412Z,100714.45
2018-02-07T08:40:45.945Z,100715.44
2018-02-07T08:43:13.498Z,100715.36
2018-02-07T08:45:41.214Z,100718.81
2018-02-07T08:48:08.953Z,100718.47
2018-02-07T08:50:36.494Z,100722.97
2018-02-07T08:53:04.111Z,100723.34
2018-02-07T08:55:31.708Z,100724.44
2018-02-07T08:57:59.207Z,100725.00
2018-02-07T09:00:26.722Z,100721.80
2018-02-07T09:02:54.246Z,100722.73
2018-02-07T09:05:21.760Z,100725.20
2018-02-07T09:07:49.404Z,100717.60
2018-02-07T09:10:16.981Z,100714.20
2018-02-07T09:12:44.513Z,100721.52
2018-02-07T09:15:12.184Z,100724.23
2018-02-07T09:17:39.701Z,100724.66
2018-02-07T09:20:07.213Z,100725.95
2018-02-07T09:22:34.732Z,100726.80
2018-02-07T09:25:02.240Z,100731.20
2018-02-07T09:27:30.392Z,100730.73
2018-02-07T09:29:57.882Z,100727.19
2018-02-07T09:32:25.521Z,100734.28
2018-02-07T09:34:53.022Z,100736.95
2018-02-07T09:37:20.564Z,100735.25
2018-02-07T09:39:48.092Z,100746.38
2018-02-07T09:42:15.736Z,100748.94
2018-02-07T09:44:43.340Z,100754.12
2018-02-07T09:47:11.275Z,100757.42
2018-02-07T09:49:38.833Z,100757.72
2018-02-07T09:52:06.436Z,100751.48
2018-02-07T09:54:34.125Z,100756.72
2018-02-07T09:57:03.466Z,100756.94
2018-02-07T09:59:30.969Z,100759.66
2018-02-07T10:01:58.866Z,100759.15
2018-02-07T10:04:26.670Z,100760.30
2018-02-07T10:06:54.244Z,100765.19
2018-02-07T10:09:22.015Z,100766.84
2018-02-07T10:11:49.581Z,100772.30
2018-02-07T10:14:17.120Z,100760.09
2018-02-07T10:16:44.627Z,100775.44
2018-02-07T10:19:12.267Z,100774.41
2018-02-07T10:21:39.800Z,100784.73
2018-02-07T10:24:07.333Z,100786.34
2018-02-07T10:26:34.849Z,100788.03
2018-02-07T10:29:02.353Z,100789.08
2018-02-07T10:31:29.876Z,100789.77
2018-02-07T10:33:57.499Z,100795.63
2018-02-07T10:36:25.008Z,100793.23
2018-02-07T10:38:52.533Z,100803.36
2018-02-07T10:41:20.031Z,100805.78
2018-02-07T10:43:47.533Z,100804.61
2018-02-07T10:46:15.052Z,100803.30
2018-02-07T10:48:42.865Z,100805.06
2018-02-07T10:51:10.753Z,100816.59
2018-02-07T10:53:38.299Z,100816.44
2018-02-07T10:56:05.837Z,100807.23
2018-02-07T10:58:34.382Z,100809.11
2018-02-07T11:01:01.990Z,100807.00
2018-02-07T11:03:29.566Z,100808.39
2018-02-07T11:05:58.410Z,100816.70
2018-02-07T11:08:26.248Z,100816.83
2018-02-07T11:10:53.874Z,100815.12
2018-02-07T11:13:21.447Z,100812.50
2018-02-07T11:15:48.962Z,100812.64
2018-02-07T11:18:16.524Z,100803.72
2018-02-07T11:20:44.018Z,100808.80
2018-02-07T11:23:11.505Z,100805.55
2018-02-07T11:25:39.002Z,100793.69
2018-02-07T11:28:06.522Z,100793.59
2018-02-07T11:30:34.022Z,100793.16
2018-02-07T11:33:01.553Z,100794.81
2018-02-07T11:35:29.094Z,100795.77
2018-02-07T11:37:56.656Z,100793.70
2018-02-07T11:40:24.213Z,100797.16
2018-02-07T11:42:51.748Z,100793.93
2018-02-07T11:45:19.255Z,100788.05
2018-02-07T11:47:46.840Z,100787.53
2018-02-07T11:50:14.353Z,100787.61
2018-02-07T11:52:41.914Z,100788.36
2018-02-07T11:55:09.424Z,100792.09
2018-02-07T11:57:37.116Z,100792.48
2018-02-07T12:00:04.668Z,100793.05
2018-02-07T12:02:32.189Z,100799.46
2018-02-07T12:04:59.760Z,100801.08
2018-02-07T12:07:27.358Z,100795.20
2018-02-07T12:09:54.911Z,100794.36
2018-02-07T12:12:22.459Z,100794.73
2018-02-07T12:14:49.991Z,100791.25
2018-02-07T12:17:17.567Z,100790.16
2018-02-07T12:19:45.091Z,100783.14
2018-02-07T12:22:12.626Z,100782.05
2018-02-07T12:24:40.145Z,100778.72
2018-02-07T12:27:07.654Z,100776.55
2018-02-07T12:29:35.381Z,100777.25
2018-02-07T12:32:03.062Z,100776.58
2018-02-07T12:34:30.579Z,100775.05
2018-02-07T12:36:58.074Z,100769.12
2018-02-07T12:39:25.696Z,100768.98
2018-02-07T12:41:53.200Z,100766.59
2018-02-07T12:44:20.720Z,100765.05
2018-02-07T12:46:48.208Z,100772.78
2018-02-07T12:49:15.750Z,100767.26
2018-02-07T12:51:43.228Z,100771.09
2018-02-07T12:54:10.733Z,100765.16
2018-02-07T12:56:38.257Z,100769.05
2018-02-07T12:59:06.466Z,100769.11
2018-02-07T13:01:33.963Z,100778.48
2018-02-07T13:04:01.465Z,100776.36
2018-02-07T13:06:28.977Z,100768.80
2018-02-07T13:08:56.467Z,100771.20
2018-02-07T13:11:23.958Z,100769.27
2018-02-07T13:13:52.336Z,100773.13
2018-02-07T13:16:19.842Z,100765.63
2018-02-07T13:18:47.369Z,100764.11
2018-02-07T13:21:14.860Z,100759.50
2018-02-07T13:23:42.360Z,100768.89
2018-02-07T13:26:09.892Z,100768.13
2018-02-07T13:28:37.416Z,100761.11
2018-02-07T13:31:04.928Z,100768.28
2018-02-07T13:33:32.441Z,100765.56
2018-02-07T13:36:00.108Z,100764.05
2018-02-07T13:38:27.655Z,100763.83
2018-02-07T13:40:55.149Z,100761.11
2018-02-07T13:43:22.670Z,100763.67
2018-02-07T13:45:50.170Z,100769.31
2018-02-07T13:48:17.654Z,100768.58
2018-02-07T13:50:45.176Z,100775.19
2018-02-07T13:53:12.704Z,100776.25
2018-02-07T13:55:40.208Z,100764.95
2018-02-07T13:58:07.765Z,100775.16
2018-02-07T14:00:40.881Z,100779.96
2018-02-07T14:03:08.405Z,100785.66
2018-02-07T14:05:35.908Z,100781.31
2018-02-07T14:08:03.430Z,100776.59
2018-02-07T14:10:30.915Z,100769.34
2018-02-07T14:12:58.494Z,100769.72
2018-02-07T14:15:25.973Z,100770.61
2018-02-07T14:17:53.547Z,100778.58
2018-02-07T14:20:21.055Z,100776.95
2018-02-07T14:22:48.616Z,100778.63
2018-02-07T14:25:16.164Z,100778.38
2018-02-07T14:27:43.735Z,100778.34
2018-02-07T14:30:11.244Z,100773.48
2018-02-07T14:32:38.746Z,100775.11
2018-02-07T14:35:06.252Z,100770.77
2018-02-07T14:37:33.746Z,100776.77
2018-02-07T14:40:01.237Z,100770.78
2018-02-07T14:42:28.723Z,100772.66
2018-02-07T14:44:56.250Z,100771.87
2018-02-07T14:47:23.746Z,100767.78
2018-02-07T14:49:51.264Z,100766.95
2018-02-07T14:52:18.775Z,100768.79
2018-02-07T14:54:46.278Z,100773.13
2018-02-07T14:57:13.749Z,100767.78
2018-02-07T14:59:41.254Z,100769.17
2018-02-07T15:02:08.765Z,100764.30
2018-02-07T15:04:36.292Z,100761.73
2018-02-07T15:07:03.815Z,100767.24
2018-02-07T15:09:31.398Z,100766.81
2018-02-07T15:11:58.901Z,100762.63
2018-02-07T15:14:26.466Z,100770.51
2018-02-07T15:16:54.026Z,100773.92
2018-02-07T15:19:22.289Z,100774.52
2018-02-07T15:21:49.861Z,100780.45
2018-02-07T15:24:17.351Z,100780.98
2018-02-07T15:26:44.940Z,100784.94
2018-02-07T15:29:12.434Z,100792.81
2018-02-07T15:31:40.612Z,100791.86
2018-02-07T15:34:08.112Z,100795.22
2018-02-07T15:36:35.629Z,100800.30
2018-02-07T15:39:03.189Z,100800.37
2018-02-07T15:41:32.286Z,100791.66
2018-02-07T15:43:59.836Z,100795.68
2018-02-07T15:46:27.409Z,100798.79
2018-02-07T15:48:54.995Z,100792.44
2018-02-07T15:51:22.638Z,100799.87
2018-02-07T15:53:50.297Z,100800.25
2018-02-07T15:56:18.293Z,100802.69
2018-02-07T15:58:45.873Z,100812.23
2018-02-07T16:01:13.516Z,100810.55
2018-02-07T16:03:40.987Z,100807.83
2018-02-07T16:06:08.599Z,100811.55
2018-02-07T16:08:36.302Z,100816.50
2018-02-07T16:11:03.845Z,100812.67
2018-02-07T16:13:31.326Z,100828.19
2018-02-07T16:16:00.110Z,100821.83
2018-02-07T16:18:27.699Z,100825.01
2018-02-07T16:20:55.177Z,100821.56
2018-02-07T16:23:22.712Z,100823.25
2018-02-07T16:25:50.214Z,100825.72
2018-02-07T16:28:17.730Z,100829.34
2018-02-07T16:30:45.275Z,100833.95
2018-02-07T16:33:12.812Z,100832.70
2018-02-07T16:35:40.343Z,100847.73
2018-02-07T16:38:07.863Z,100847.30
2018-02-07T16:40:35.388Z,100845.38
2018-02-07T16:43:02.911Z,100847.45
2018-02-07T16:45:30.419Z,100845.70
2018-02-07T16:47:57.947Z,100846.02
2018-02-07T16:50:25.460Z,100847.27
2018-02-07T16:52:52.952Z,100847.25
2018-02-07T16:55:20.474Z,100844.25
2018-02-07T16:57:48.703Z,100844.47
2018-02-07T17:00:16.204Z,100843.15
2018-02-07T17:02:43.773Z,100850.67
2018-02-07T17:05:11.331Z,100855.51
2018-02-07T17:07:38.840Z,100858.16
2018-02-07T17:10:08.712Z,100861.25
2018-02-07T17:12:36.243Z,100862.91
2018-02-07T17:15:03.831Z,100859.98
2018-02-07T17:17:31.342Z,100868.28
2018-02-07T17:19:58.851Z,100871.44
2018-02-07T17:22:26.435Z,100873.30
2018-02-07T17:24:53.962Z,100876.16
2018-02-07T17:27:21.487Z,100875.61
2018-02-07T17:29:49.048Z,100880.62
2018-02-07T17:32:16.733Z,100878.88
2018-02-07T17:34:44.234Z,100889.61
2018-02-07T17:37:11.765Z,100884.44
2018-02-07T17:39:39.287Z,100883.06
2018-02-07T17:42:06.845Z,100887.99
2018-02-07T17:44:34.374Z,100891.21
2018-02-07T17:47:01.866Z,100886.92
2018-02-07T17:49:29.418Z,100887.61
2018-02-07T17:51:56.942Z,100891.73
2018-02-07T17:54:24.480Z,100886.69
2018-02-07T17:56:52.000Z,100887.39
2018-02-07T17:59:19.520Z,100886.48
2018-02-07T18:01:47.288Z,100887.23
2018-02-07T18:04:15.031Z,100881.73
2018-02-07T18:06:42.568Z,100895.05
2018-02-07T18:09:10.091Z,100896.28
2018-02-07T18:11:37.609Z,100906.34
2018-02-07T18:14:05.123Z,100897.97
2018-02-07T18:16:32.648Z,100909.26
2018-02-07T18:19:00.163Z,100905.83
2018-02-07T18:21:27.673Z,100907.04
2018-02-07T18:23:55.200Z,100902.83
2018-02-07T18:26:22.706Z,100911.48
2018-02-07T18:28:50.225Z,100906.45
2018-02-07T18:31:17.759Z,100914.69
2018-02-07T18:33:45.344Z,100910.98
2018-02-07T18:36:12.867Z,100911.92
2018-02-07T18:38:40.433Z,100909.98
2018-02-07T18:41:07.996Z,100907.38
2018-02-07T18:43:35.497Z,100908.20
2018-02-07T18:46:03.015Z,100911.99
2018-02-07T18:48:30.579Z,100922.11
2018-02-07T18:50:58.235Z,100911.59
2018-02-07T18:53:25.821Z,100919.44
2018-02-07T18:55:53.342Z,100920.23
2018-02-07T18:58:20.854Z,100932.09
2018-02-07T19:00:48.360Z,100932.20
2018-02-07T19:03:15.873Z,100928.42
2018-02-07T19:05:43.378Z,100936.80
2018-02-07T19:08:10.871Z,100936.88
2018-02-07T19:10:38.379Z,100940.70
2018-02-07T19:13:05.893Z,100941.32
2018-02-07T19:15:33.393Z,100946.75
2018-02-07T19:18:00.912Z,100947.50
2018-02-07T19:20:29.469Z,100947.00
2018-02-07T19:22:57.461Z,100949.11
2018-02-07T19:25:25.290Z,100949.94
2018-02-07T19:27:53.349Z,100956.63
2018-02-07T19:30:21.234Z,100953.98
2018-02-07T19:32:49.096Z,100958.08
2018-02-07T19:35:16.914Z,100960.34
2018-02-07T19:37:44.766Z,100960.75
2018-02-07T19:40:12.337Z,100966.45
2018-02-07T19:42:39.993Z,100968.18
2018-02-07T19:45:07.516Z,100971.86
2018-02-07T19:47:35.001Z,100966.86
2018-02-07T19:50:02.510Z,100971.05
2018-02-07T19:52:30.016Z,100971.34
2018-02-07T19:54:58.369Z,100971.34
2018-02-07T19:57:28.220Z,100974.65
2018-02-07T19:59:55.752Z,100968.87
2018-02-07T20:02:23.247Z,100976.88
2018-02-07T20:04:51.044Z,100975.91
2018-02-07T20:07:20.274Z,100978.66
2018-02-07T20:09:48.168Z,100981.72
2018-02-07T20:12:15.977Z,100980.45
2018-02-07T20:14:43.767Z,100983.45
2018-02-07T20:17:11.648Z,100985.80
2018-02-07T20:19:39.418Z,100988.48
2018-02-07T20:22:07.143Z,100992.15
2018-02-07T20:24:34.655Z,100990.75
2018-02-07T20:27:02.164Z,100987.81
2018-02-07T20:29:29.654Z,100988.59
2018-02-07T20:31:57.196Z,100991.67
2018-02-07T20:34:24.714Z,100991.33
2018-02-07T20:36:52.250Z,100999.89
2018-02-07T20:39:19.811Z,101001.09
2018-02-07T20:41:47.431Z,101006.95
2018-02-07T20:44:14.944Z,101011.55
2018-02-07T20:46:42.472Z,101013.85
2018-02-07T20:49:09.958Z,101011.64
2018-02-07T20:51:37.480Z,101002.81
2018-02-07T20:54:05.037Z,101006.42
2018-02-07T20:56:32.551Z,101007.43
2018-02-07T20:59:00.121Z,101005.49
2018-02-07T21:34:26.370Z,101017.19
2018-02-07T21:36:53.889Z,101024.13
2018-02-07T21:39:21.495Z,101018.59
2018-02-07T21:41:49.039Z,101017.72
2018-02-07T21:44:16.678Z,101014.93
2018-02-07T21:46:44.195Z,101018.46
2018-02-07T21:49:11.716Z,101015.44
2018-02-07T21:51:39.214Z,101009.13
2018-02-07T21:54:06.722Z,101008.52
2018-02-07T21:56:34.254Z,101007.49
2018-02-07T21:59:01.766Z,101012.64
2018-02-07T22:01:29.288Z,101012.05
2018-02-07T22:03:56.908Z,101012.63
2018-02-07T22:06:24.486Z,101002.66
2018-02-07T22:08:52.021Z,101001.93
2018-02-07T22:11:19.572Z,101004.66
2018-02-07T22:13:47.115Z,101007.38
2018-02-07T22:16:14.622Z,101004.08
2018-02-07T22:18:42.129Z,101008.33
2018-02-07T22:21:09.735Z,101007.94
2018-02-07T22:23:37.421Z,101007.07
2018-02-07T22:26:04.987Z,101011.12
2018-02-07T22:28:32.672Z,101008.09
2018-02-07T22:31:00.338Z,101010.13
2018-02-07T22:33:27.872Z,101010.45
2018-02-07T22:35:55.436Z,101013.95
2018-02-07T22:38:23.103Z,101012.03
2018-02-07T22:40:50.720Z,101016.13
2018-02-07T22:43:18.277Z,101013.02
2018-02-07T22:45:45.879Z,101016.23
2018-02-07T22:48:13.438Z,101010.09
2018-02-07T22:50:41.263Z,101009.45
2018-02-07T22:53:08.827Z,101014.87
2018-02-07T22:55:36.475Z,101014.56
2018-02-07T22:58:05.541Z,101026.16
2018-02-07T23:00:33.294Z,101017.59
2018-02-07T23:06:07.040Z,101024.58
2018-02-07T23:08:34.658Z,101028.91
2018-02-07T23:11:02.241Z,101030.38
2018-02-07T23:13:29.826Z,101028.96
2018-02-07T23:15:57.406Z,101020.31
2018-02-07T23:18:24.992Z,101025.07
2018-02-07T23:20:52.560Z,101024.75
2018-02-07T23:23:20.055Z,101024.73
2018-02-07T23:25:47.611Z,101026.41
2018-02-07T23:28:15.270Z,101025.98
2018-02-07T23:30:42.806Z,101036.87
2018-02-07T23:33:10.385Z,101035.55
2018-02-07T23:35:37.941Z,101034.44
2018-02-07T23:38:05.515Z,101041.83
2018-02-07T23:40:33.129Z,101046.34
2018-02-07T23:43:00.686Z,101038.16
2018-02-07T23:45:28.239Z,101041.66
2018-02-07T23:47:55.847Z,101043.78
2018-02-07T23:50:23.401Z,101046.70
2018-02-07T23:52:50.906Z,101052.91
2018-02-07T23:55:18.428Z,101043.11
2018-02-07T23:57:46.614Z,101043.41
